Time;durP1;ratioP1;P1;durP2;ratioP2;P2;SDS_P1;SDS_P2;PMS_P1;PMS_P2;Temp;Humidity;BMP_temperature;BMP_pressure;BME280_temperature;BME280_humidity;BME280_pressure;Samples;Min_cycle;Max_cycle;Signal;HPM_P1;HPM_P2
2022/07/26 00:01:19;;;;;;;19.08;6.50;;;16.70;99.90;;;;;;5032558;28;20108;-69
2022/07/26 00:03:45;;;;;;;31.35;6.55;;;16.70;99.90;;;;;;5033656;28;20496;-69
2022/07/26 00:06:10;;;;;;;26.45;6.60;;;16.70;99.90;;;;;;5033795;28;20025;-69
2022/07/26 00:08:36;;;;;;;29.02;5.88;;;16.70;99.90;;;;;;5033432;28;20436;-69
2022/07/26 00:11:02;;;;;;;29.75;6.18;;;16.70;99.90;;;;;;5032573;28;20112;-69
2022/07/26 00:13:27;;;;;;;24.65;6.45;;;16.70;99.90;;;;;;5033498;28;20072;-69
2022/07/26 00:15:53;;;;;;;39.72;6.15;;;16.70;99.90;;;;;;5033396;28;20025;-69
2022/07/26 00:18:19;;;;;;;19.00;5.85;;;16.70;99.90;;;;;;5033438;28;20044;-69
2022/07/26 00:20:47;;;;;;;21.00;6.10;;;16.70;99.90;;;;;;5032417;28;20030;-69
2022/07/26 00:23:12;;;;;;;22.27;6.55;;;16.70;99.90;;;;;;5033520;28;20034;-69
2022/07/26 00:25:38;;;;;;;22.13;6.25;;;16.80;99.90;;;;;;5033229;28;20151;-69
2022/07/26 00:28:04;;;;;;;23.65;7.50;;;16.80;99.90;;;;;;5033278;28;20021;-69
2022/07/26 00:30:30;;;;;;;31.13;5.70;;;16.90;99.90;;;;;;5032225;28;20135;-69
2022/07/26 00:32:56;;;;;;;25.67;8.00;;;16.90;99.90;;;;;;5032599;28;20501;-69
2022/07/26 00:35:22;;;;;;;26.38;5.85;;;16.90;99.90;;;;;;5033466;28;20386;-69
2022/07/26 00:37:47;;;;;;;23.00;5.40;;;16.80;99.90;;;;;;5033197;28;20026;-69
2022/07/26 00:40:14;;;;;;;26.27;6.43;;;16.80;99.90;;;;;;5032417;28;20531;-68
2022/07/26 00:42:40;;;;;;;21.60;6.30;;;16.80;99.90;;;;;;5033337;28;20029;-69
2022/07/26 00:45:06;;;;;;;39.22;6.88;;;16.80;99.90;;;;;;5033652;28;20108;-69
2022/07/26 00:47:32;;;;;;;27.13;6.53;;;16.70;99.90;;;;;;5037522;28;20025;-68
2022/07/26 00:49:58;;;;;;;30.27;6.25;;;16.70;99.90;;;;;;5036197;28;20083;-68
2022/07/26 00:52:24;;;;;;;25.13;6.25;;;16.50;99.90;;;;;;5036795;28;20105;-68
2022/07/26 00:54:50;;;;;;;25.58;6.63;;;16.30;99.90;;;;;;5036933;28;20056;-68
2022/07/26 00:57:16;;;;;;;32.95;8.07;;;16.30;99.90;;;;;;5037294;28;20519;-68
2022/07/26 00:59:42;;;;;;;32.10;7.93;;;16.10;99.90;;;;;;5036138;28;20030;-67
2022/07/26 01:02:08;;;;;;;28.73;8.80;;;16.20;99.90;;;;;;5017853;28;20109;-69
2022/07/26 01:04:35;;;;;;;26.90;8.82;;;16.20;99.90;;;;;;5017144;28;20026;-69
2022/07/26 01:07:01;;;;;;;33.75;8.93;;;16.20;99.90;;;;;;5034051;28;20489;-69
2022/07/26 01:09:27;;;;;;;28.23;8.90;;;16.20;99.90;;;;;;5036474;28;20038;-69
2022/07/26 01:11:52;;;;;;;43.75;9.57;;;16.20;99.90;;;;;;5035743;28;20037;-69
2022/07/26 01:14:22;;;;;;;29.95;9.02;;;16.20;99.90;;;;;;5036840;28;20080;-69
2022/07/26 01:16:47;;;;;;;44.08;9.63;;;16.30;99.90;;;;;;5036505;28;20466;-68
2022/07/26 01:19:13;;;;;;;36.35;9.23;;;16.20;99.90;;;;;;5036900;28;20042;-68
2022/07/26 01:21:39;;;;;;;35.45;8.35;;;16.20;99.90;;;;;;5035239;28;20386;-68
2022/07/26 01:24:06;;;;;;;22.35;7.53;;;16.20;99.90;;;;;;5036223;28;20113;-68
2022/07/26 01:26:32;;;;;;;31.73;8.90;;;16.20;99.90;;;;;;5036341;28;20087;-68
2022/07/26 01:28:57;;;;;;;23.45;6.95;;;16.20;99.90;;;;;;5034214;28;20425;-68
2022/07/26 01:31:23;;;;;;;23.77;7.85;;;16.20;99.90;;;;;;5035658;28;20355;-68
2022/07/26 01:33:50;;;;;;;16.02;6.85;;;16.10;99.90;;;;;;5036466;28;20021;-68
2022/07/26 01:36:15;;;;;;;17.80;6.22;;;16.10;99.90;;;;;;5036404;28;20385;-68
2022/07/26 01:38:42;;;;;;;21.63;6.90;;;15.90;99.90;;;;;;5017306;28;20121;-68
2022/07/26 01:41:08;;;;;;;23.48;7.55;;;15.80;99.90;;;;;;5036177;28;20432;-68
2022/07/26 01:43:34;;;;;;;26.85;7.20;;;15.80;99.90;;;;;;5036195;28;20068;-68
2022/07/26 01:46:00;;;;;;;25.48;8.05;;;15.80;99.90;;;;;;5036035;28;20100;-68
2022/07/26 01:48:25;;;;;;;26.25;7.95;;;15.70;99.90;;;;;;5034963;28;20508;-68
2022/07/26 01:50:51;;;;;;;27.65;9.13;;;15.80;99.90;;;;;;5035808;28;20095;-69
2022/07/26 01:53:16;;;;;;;49.00;8.85;;;15.80;99.90;;;;;;5035896;28;20543;-69
2022/07/26 01:55:42;;;;;;;29.40;9.07;;;15.80;99.90;;;;;;5036047;28;20028;-69
2022/07/26 01:58:08;;;;;;;27.40;9.15;;;15.80;99.90;;;;;;5033861;28;20496;-68
2022/07/26 02:00:33;;;;;;;30.15;11.57;;;15.90;99.90;;;;;;5036736;28;20076;-69
2022/07/26 02:03:00;;;;;;;26.55;9.73;;;15.90;99.90;;;;;;5033718;28;20030;-68
2022/07/26 02:05:25;;;;;;;42.30;10.95;;;15.90;99.90;;;;;;5035682;28;20390;-69
2022/07/26 02:07:51;;;;;;;23.42;8.88;;;15.90;99.90;;;;;;5035470;28;20030;-68
2022/07/26 02:10:17;;;;;;;47.65;11.43;;;15.90;99.90;;;;;;5035554;28;20033;-69
2022/07/26 02:12:42;;;;;;;40.60;9.90;;;16.00;99.90;;;;;;5016858;28;20033;-69
2022/07/26 02:15:10;;;;;;;53.70;12.40;;;16.00;99.90;;;;;;5035521;28;20033;-69
2022/07/26 02:17:36;;;;;;;28.88;9.40;;;16.00;99.90;;;;;;5035492;28;20018;-69
2022/07/26 02:20:03;;;;;;;36.05;10.90;;;16.00;99.90;;;;;;5035312;28;20512;-69
2022/07/26 02:22:28;;;;;;;34.33;10.77;;;16.00;99.90;;;;;;5034499;28;20129;-69
2022/07/26 02:24:54;;;;;;;48.85;11.38;;;16.00;99.90;;;;;;5035574;28;20117;-69
2022/07/26 02:27:20;;;;;;;34.40;9.88;;;15.90;99.90;;;;;;5035773;28;20025;-69
2022/07/26 02:29:46;;;;;;;30.85;9.55;;;15.90;99.90;;;;;;5035281;28;20033;-69
2022/07/26 02:32:11;;;;;;;44.97;10.13;;;15.90;99.90;;;;;;5035393;28;20031;-69
2022/07/26 02:34:37;;;;;;;30.45;9.30;;;15.80;99.90;;;;;;5034219;28;20104;-69
2022/07/26 02:37:03;;;;;;;30.50;9.80;;;15.80;99.90;;;;;;5034365;28;20025;-68
2022/07/26 02:39:29;;;;;;;39.05;10.50;;;15.80;99.90;;;;;;5035228;28;20458;-69
2022/07/26 02:41:59;;;;;;;47.88;10.82;;;15.70;99.90;;;;;;5035173;28;20036;-69
2022/07/26 02:44:26;;;;;;;38.88;9.15;;;15.70;99.90;;;;;;5034956;28;20060;-69
2022/07/26 02:46:52;;;;;;;35.05;9.57;;;15.60;99.90;;;;;;5034924;28;20064;-69
2022/07/26 02:49:19;;;;;;;29.95;9.73;;;15.70;99.90;;;;;;5033005;28;20393;-69
2022/07/26 02:51:45;;;;;;;33.50;9.25;;;15.60;99.90;;;;;;5034782;28;20108;-69
2022/07/26 02:54:11;;;;;;;20.65;8.27;;;15.60;99.90;;;;;;5034858;28;20450;-69
2022/07/26 02:56:37;;;;;;;29.70;10.60;;;15.50;99.90;;;;;;5034632;28;20132;-69
2022/07/26 02:59:03;;;;;;;28.77;8.65;;;15.50;99.90;;;;;;5034671;28;20037;-69
2022/07/26 03:01:29;;;;;;;35.78;10.00;;;15.50;99.90;;;;;;5034651;28;20053;-69
2022/07/26 03:03:55;;;;;;;25.73;8.60;;;15.50;99.90;;;;;;5032911;28;20596;-68
2022/07/26 03:06:20;;;;;;;33.13;7.95;;;15.50;99.90;;;;;;5034477;28;20025;-69
2022/07/26 03:08:47;;;;;;;29.60;8.13;;;15.40;99.90;;;;;;5033812;28;20017;-69
2022/07/26 03:11:12;;;;;;;23.80;9.55;;;15.50;99.90;;;;;;5034387;28;20033;-69
2022/07/26 03:13:38;;;;;;;24.33;8.60;;;15.50;99.90;;;;;;5034675;28;20033;-69
2022/07/26 03:16:05;;;;;;;39.85;10.00;;;15.50;99.90;;;;;;5034251;28;20473;-69
2022/07/26 03:18:31;;;;;;;26.30;9.32;;;15.60;99.90;;;;;;5034102;28;20464;-69
2022/07/26 03:20:57;;;;;;;25.50;7.32;;;15.60;99.90;;;;;;5015743;28;20068;-69
2022/07/26 03:23:22;;;;;;;17.27;7.38;;;15.60;99.90;;;;;;5034134;28;20060;-69
2022/07/26 03:25:48;;;;;;;17.25;6.43;;;15.60;99.90;;;;;;5034393;28;20390;-69
2022/07/26 03:28:13;;;;;;;22.92;7.20;;;15.50;99.90;;;;;;5034236;28;20033;-69
2022/07/26 03:30:39;;;;;;;23.25;7.40;;;15.50;99.90;;;;;;5034231;28;20025;-69
2022/07/26 03:33:05;;;;;;;19.70;5.63;;;15.50;99.90;;;;;;5034000;28;20032;-69
2022/07/26 03:35:30;;;;;;;24.52;5.40;;;15.50;99.90;;;;;;5034026;28;20025;-69
2022/07/26 03:37:56;;;;;;;17.40;5.50;;;15.50;99.90;;;;;;5021321;28;20026;-68
2022/07/26 03:40:21;;;;;;;13.15;4.65;;;15.50;99.90;;;;;;5016031;28;20034;-68
2022/07/26 03:42:47;;;;;;;13.35;4.30;;;15.40;99.90;;;;;;5014075;28;20026;-68
2022/07/26 03:45:14;;;;;;;8.73;3.63;;;15.40;99.90;;;;;;5014111;28;20025;-68
2022/07/26 03:47:40;;;;;;;8.05;3.30;;;15.30;99.90;;;;;;5013822;28;20026;-68
2022/07/26 03:50:07;;;;;;;10.05;3.17;;;15.30;99.90;;;;;;5013918;28;20033;-68
2022/07/26 03:52:33;;;;;;;8.45;2.40;;;15.20;99.90;;;;;;5014700;28;20416;-68
2022/07/26 03:54:59;;;;;;;12.35;2.90;;;15.20;99.90;;;;;;5033553;28;20014;-68
2022/07/26 03:57:24;;;;;;;9.35;3.20;;;15.10;99.90;;;;;;5033710;28;20049;-68
2022/07/26 03:59:50;;;;;;;22.60;2.67;;;15.20;99.90;;;;;;5033555;28;20034;-68
2022/07/26 04:02:16;;;;;;;12.80;2.90;;;15.10;99.90;;;;;;5034091;28;20429;-68
2022/07/26 04:04:41;;;;;;;19.52;2.88;;;15.00;99.90;;;;;;5033678;28;20025;-69
2022/07/26 04:07:07;;;;;;;14.65;2.67;;;15.00;99.90;;;;;;5033777;28;20028;-68
2022/07/26 04:09:33;;;;;;;15.32;2.50;;;15.00;99.90;;;;;;5030362;28;20080;-68
2022/07/26 04:11:58;;;;;;;20.48;3.42;;;14.90;99.90;;;;;;5033561;28;20024;-69
2022/07/26 04:14:24;;;;;;;9.00;2.05;;;14.90;99.90;;;;;;5033476;28;20060;-69
2022/07/26 04:16:49;;;;;;;13.95;3.03;;;14.90;99.90;;;;;;5033674;28;20018;-69
2022/07/26 04:19:15;;;;;;;16.98;3.17;;;14.90;99.90;;;;;;5033724;28;20045;-69
2022/07/26 04:21:40;;;;;;;11.20;2.72;;;14.80;99.90;;;;;;5037309;28;20064;-69
2022/07/26 04:24:06;;;;;;;13.70;2.15;;;14.80;99.90;;;;;;5038195;28;20030;-69
2022/07/26 04:26:32;;;;;;;13.35;2.67;;;14.80;99.90;;;;;;5036222;28;20037;-68
2022/07/26 04:28:57;;;;;;;16.90;2.60;;;14.80;99.90;;;;;;5037334;28;20051;-68
2022/07/26 04:31:24;;;;;;;15.55;2.65;;;14.70;99.90;;;;;;5037441;28;20381;-70
2022/07/26 04:33:50;;;;;;;19.50;3.42;;;14.70;99.90;;;;;;5037403;28;20026;-69
2022/07/26 04:36:16;;;;;;;14.65;2.85;;;14.70;99.90;;;;;;5037393;28;20421;-69
2022/07/26 04:38:42;;;;;;;19.08;2.40;;;14.70;99.90;;;;;;5037098;28;20079;-69
2022/07/26 04:41:07;;;;;;;13.07;2.45;;;14.70;99.90;;;;;;5035611;28;20380;-68
2022/07/26 04:43:33;;;;;;;10.55;1.80;;;14.60;99.90;;;;;;5035724;28;20444;-69
2022/07/26 04:45:59;;;;;;;13.15;3.65;;;14.60;99.90;;;;;;5037496;28;20072;-69
2022/07/26 04:48:25;;;;;;;13.63;2.17;;;14.60;99.90;;;;;;5036861;28;20022;-69
2022/07/26 04:50:51;;;;;;;13.18;2.20;;;14.70;99.90;;;;;;5019664;28;20377;-69
2022/07/26 04:53:17;;;;;;;20.83;1.90;;;14.60;99.90;;;;;;5037323;28;20442;-69
2022/07/26 04:55:42;;;;;;;16.35;2.65;;;14.70;99.90;;;;;;5036944;28;20053;-69
2022/07/26 04:58:09;;;;;;;8.80;2.03;;;14.70;99.90;;;;;;5035057;28;20053;-69
2022/07/26 05:00:35;;;;;;;11.18;2.15;;;14.80;99.90;;;;;;5036975;28;20096;-68
2022/07/26 05:03:03;;;;;;;14.77;2.42;;;14.80;99.90;;;;;;5035878;28;20514;-69
2022/07/26 05:05:31;;;;;;;21.67;2.63;;;14.80;99.90;;;;;;5036699;28;20104;-69
2022/07/26 05:08:00;;;;;;;19.80;2.25;;;14.80;99.90;;;;;;5036480;28;20029;-69
2022/07/26 05:10:34;;;;;;;17.13;3.53;;;14.90;99.90;;;;;;5036663;28;20017;-69
2022/07/26 05:13:02;;;;;;;12.90;2.30;;;14.90;99.90;;;;;;5035853;28;20021;-68
2022/07/26 05:15:28;;;;;;;12.80;2.42;;;15.00;99.90;;;;;;5035877;28;20030;-69
2022/07/26 05:17:56;;;;;;;13.93;2.20;;;15.00;99.90;;;;;;5035342;28;20488;-69
2022/07/26 05:20:23;;;;;;;17.27;3.13;;;15.00;99.90;;;;;;5036376;28;20039;-69
2022/07/26 05:22:48;;;;;;;17.55;2.60;;;14.80;99.90;;;;;;5036593;28;20049;-69
2022/07/26 05:25:14;;;;;;;17.02;2.00;;;14.60;99.90;;;;;;5036433;28;20428;-69
2022/07/26 05:27:40;;;;;;;12.07;2.35;;;14.60;99.90;;;;;;5036224;28;20024;-69
2022/07/26 05:30:07;;;;;;;14.30;2.60;;;14.50;99.90;;;;;;5017457;28;20027;-68
2022/07/26 05:32:33;;;;;;;11.02;1.85;;;14.50;99.90;;;;;;5034751;28;20025;-68
2022/07/26 05:34:58;;;;;;;10.85;1.73;;;14.50;99.90;;;;;;5036297;28;20024;-69
2022/07/26 05:37:24;;;;;;;15.90;2.92;;;14.50;99.90;;;;;;5036028;28;20033;-69
2022/07/26 05:39:49;;;;;;;12.50;1.65;;;14.50;99.90;;;;;;5036000;28;20029;-68
2022/07/26 05:42:15;;;;;;;19.25;1.80;;;14.50;99.90;;;;;;5036028;28;20444;-69
2022/07/26 05:44:41;;;;;;;12.70;1.65;;;14.50;99.90;;;;;;5035013;28;20516;-68
2022/07/26 05:47:06;;;;;;;7.25;1.83;;;14.60;99.90;;;;;;5036144;28;20033;-69
2022/07/26 05:49:32;;;;;;;12.57;2.05;;;14.70;99.90;;;;;;5017737;28;20025;-68
2022/07/26 05:51:58;;;;;;;20.33;2.13;;;14.80;99.90;;;;;;5018076;28;20220;-68
2022/07/26 05:54:23;;;;;;;14.05;2.25;;;14.80;99.90;;;;;;5036061;28;20100;-69
2022/07/26 05:56:49;;;;;;;12.60;1.92;;;14.90;99.90;;;;;;5035676;28;20022;-69
2022/07/26 05:59:14;;;;;;;18.00;2.15;;;15.00;99.90;;;;;;5035695;28;20034;-69
2022/07/26 06:01:40;;;;;;;13.38;2.08;;;15.00;99.90;;;;;;5033973;28;20053;-68
2022/07/26 06:04:07;;;;;;;14.52;2.50;;;15.00;99.90;;;;;;5035740;28;20037;-69
2022/07/26 06:06:33;;;;;;;8.63;1.63;;;15.10;99.90;;;;;;5036011;28;20021;-69
2022/07/26 06:08:58;;;;;;;13.35;1.63;;;15.00;99.90;;;;;;5035411;28;20036;-69
2022/07/26 06:11:24;;;;;;;11.68;2.65;;;15.00;99.90;;;;;;5035422;28;20539;-69
2022/07/26 06:13:50;;;;;;;14.35;2.25;;;15.00;99.90;;;;;;5035366;28;20021;-68
2022/07/26 06:16:15;;;;;;;9.02;1.60;;;14.90;99.90;;;;;;5033434;28;20053;-68
2022/07/26 06:18:41;;;;;;;11.13;1.90;;;14.70;99.90;;;;;;5035071;28;20034;-68
2022/07/26 06:21:06;;;;;;;10.57;1.52;;;14.70;99.90;;;;;;5017592;28;20418;-69
2022/07/26 06:23:32;;;;;;;10.05;1.92;;;14.70;99.90;;;;;;5035270;28;20026;-68
2022/07/26 06:25:58;;;;;;;16.33;2.53;;;14.70;99.90;;;;;;5035239;28;20061;-69
2022/07/26 06:28:23;;;;;;;8.90;1.50;;;14.60;99.90;;;;;;5034872;28;20105;-68
2022/07/26 06:30:49;;;;;;;11.38;1.63;;;14.60;99.90;;;;;;5034015;28;20104;-69
2022/07/26 06:33:15;;;;;;;8.48;1.77;;;14.90;99.90;;;;;;5033618;28;20567;-69
2022/07/26 06:35:41;;;;;;;10.00;1.50;;;15.10;99.90;;;;;;5035119;28;20056;-69
2022/07/26 06:38:07;;;;;;;9.95;2.13;;;15.40;99.90;;;;;;5034983;28;20500;-70
2022/07/26 06:40:33;;;;;;;18.92;2.17;;;15.30;99.90;;;;;;5034980;28;20098;-70
2022/07/26 06:42:59;;;;;;;7.60;1.42;;;15.40;99.90;;;;;;5032539;28;20029;-70
2022/07/26 06:45:26;;;;;;;8.73;1.27;;;15.60;99.90;;;;;;5035320;28;20026;-69
2022/07/26 06:47:51;;;;;;;14.40;2.35;;;15.80;99.90;;;;;;5034404;28;20198;-69
2022/07/26 06:50:17;;;;;;;12.18;1.67;;;16.10;99.90;;;;;;5035277;28;20036;-69
2022/07/26 06:52:42;;;;;;;14.45;3.03;;;16.50;99.90;;;;;;5034469;28;20547;-69
2022/07/26 06:55:08;;;;;;;11.95;2.63;;;16.40;99.90;;;;;;5034610;28;20044;-69
2022/07/26 06:57:34;;;;;;;7.22;1.25;;;15.90;99.90;;;;;;5033496;28;20027;-69
2022/07/26 07:00:01;;;;;;;16.98;2.90;;;15.30;99.90;;;;;;5034406;28;20027;-69
2022/07/26 07:02:27;;;;;;;12.63;1.92;;;14.80;99.90;;;;;;5035083;28;20494;-69
2022/07/26 07:04:52;;;;;;;16.77;1.75;;;14.80;99.90;;;;;;5033770;28;20033;-69
2022/07/26 07:07:18;;;;;;;9.73;1.67;;;14.90;99.90;;;;;;5032339;28;20033;-69
2022/07/26 07:09:44;;;;;;;20.92;2.60;;;15.00;99.90;;;;;;5032775;28;20034;-69
2022/07/26 07:12:10;;;;;;;31.25;4.40;;;14.90;99.90;;;;;;5015346;28;20026;-69
2022/07/26 07:14:36;;;;;;;11.30;2.20;;;15.00;99.90;;;;;;5034889;28;20030;-69
2022/07/26 07:17:02;;;;;;;13.50;2.00;;;15.00;99.90;;;;;;5034292;28;20478;-69
2022/07/26 07:19:27;;;;;;;13.48;2.67;;;15.20;99.90;;;;;;5016885;28;20401;-70
2022/07/26 07:21:53;;;;;;;13.73;2.60;;;15.30;99.90;;;;;;5034190;28;20389;-70
2022/07/26 07:24:19;;;;;;;20.67;2.80;;;15.40;99.90;;;;;;5033012;28;20044;-70
2022/07/26 07:26:45;;;;;;;10.77;1.98;;;15.40;99.90;;;;;;5034032;28;20080;-70
2022/07/26 07:29:16;;;;;;;15.55;2.47;;;15.60;99.90;;;;;;5034182;28;20079;-70
2022/07/26 07:31:44;;;;;;;13.07;2.17;;;15.90;99.90;;;;;;5034276;28;20502;-70
2022/07/26 07:34:10;;;;;;;22.92;2.80;;;16.00;99.90;;;;;;5034504;28;20087;-69
2022/07/26 07:36:35;;;;;;;11.10;2.05;;;16.10;99.90;;;;;;5033952;28;20049;-71
2022/07/26 07:39:01;;;;;;;18.63;2.78;;;16.30;99.90;;;;;;5032623;28;20042;-69
2022/07/26 07:41:27;;;;;;;15.18;2.03;;;16.40;99.90;;;;;;5030520;28;20041;-70
2022/07/26 07:43:53;;;;;;;12.52;1.80;;;16.60;99.90;;;;;;5034048;28;20026;-70
2022/07/26 07:46:18;;;;;;;10.25;1.80;;;16.90;99.90;;;;;;5031991;28;20029;-69
2022/07/26 07:48:44;;;;;;;16.00;2.22;;;17.10;99.90;;;;;;5034125;28;20035;-70
2022/07/26 07:51:09;;;;;;;19.30;2.08;;;17.10;99.90;;;;;;5034007;28;20470;-70
2022/07/26 07:53:35;;;;;;;7.90;1.83;;;16.90;99.90;;;;;;5033832;28;20025;-70
2022/07/26 07:56:00;;;;;;;15.80;2.25;;;16.80;99.90;;;;;;5033573;28;20037;-70
2022/07/26 07:58:26;;;;;;;17.20;2.95;;;16.60;99.90;;;;;;5032491;28;20366;-70
2022/07/26 08:00:52;;;;;;;20.55;2.67;;;16.70;99.90;;;;;;5032977;28;20029;-69
2022/07/26 08:03:18;;;;;;;12.25;2.03;;;17.10;99.90;;;;;;5033525;28;20033;-70
2022/07/26 08:05:44;;;;;;;9.48;2.03;;;17.30;99.90;;;;;;5033762;28;20385;-70
2022/07/26 08:08:09;;;;;;;24.02;2.88;;;16.90;99.90;;;;;;5033492;28;20021;-70
2022/07/26 08:10:35;;;;;;;15.38;3.15;;;16.60;99.90;;;;;;5033426;28;20473;-70
2022/07/26 08:13:00;;;;;;;14.65;2.85;;;16.20;99.90;;;;;;5033399;28;20469;-70
2022/07/26 08:15:26;;;;;;;11.02;2.60;;;16.50;99.90;;;;;;5029422;28;20039;-70
2022/07/26 08:17:52;;;;;;;17.77;2.67;;;16.80;99.90;;;;;;5031875;28;20026;-69
2022/07/26 08:20:18;;;;;;;19.80;2.83;;;16.80;99.90;;;;;;5032487;28;20029;-70
2022/07/26 08:22:44;;;;;;;15.00;2.70;;;17.10;99.90;;;;;;5033387;28;20028;-70
2022/07/26 08:25:09;;;;;;;10.88;2.50;;;17.10;99.90;;;;;;5034066;28;20026;-70
2022/07/26 08:27:35;;;;;;;21.65;3.30;;;16.80;99.90;;;;;;5033393;28;20109;-69
2022/07/26 08:30:01;;;;;;;14.70;2.30;;;16.80;99.90;;;;;;5033407;28;20026;-70
2022/07/26 08:32:26;;;;;;;10.85;2.60;;;17.00;99.90;;;;;;5033496;28;20371;-71
2022/07/26 08:34:52;;;;;;;14.45;2.22;;;17.60;99.90;;;;;;5032347;28;20026;-70
2022/07/26 08:37:17;;;;;;;22.17;2.83;;;17.70;99.90;;;;;;5032063;28;20547;-69
2022/07/26 08:39:44;;;;;;;17.00;2.83;;;17.50;99.90;;;;;;5014863;28;20037;-70
2022/07/26 08:42:18;;;;;;;18.58;3.08;;;17.00;99.90;;;;;;5022426;28;20029;-70
2022/07/26 08:44:45;;;;;;;18.20;2.53;;;16.80;99.90;;;;;;5033265;28;20037;-70
2022/07/26 08:47:16;;;;;;;17.98;2.78;;;16.90;99.90;;;;;;5033359;28;20025;-70
2022/07/26 08:49:43;;;;;;;13.45;2.20;;;17.00;99.90;;;;;;5033291;28;20034;-70
2022/07/26 08:52:11;;;;;;;13.93;2.30;;;17.30;99.90;;;;;;5033292;28;20025;-69
2022/07/26 08:54:45;;;;;;;13.90;2.90;;;17.50;99.90;;;;;;5033483;28;20022;-69
2022/07/26 08:57:11;;;;;;;15.93;2.70;;;17.70;99.90;;;;;;5031520;28;20017;-69
2022/07/26 08:59:37;;;;;;;22.85;2.28;;;17.90;99.90;;;;;;5033098;28;20025;-69
2022/07/26 09:02:06;;;;;;;15.82;2.92;;;17.80;99.90;;;;;;5033086;28;20026;-69
2022/07/26 09:04:37;;;;;;;16.80;3.05;;;17.80;99.90;;;;;;5033469;28;20539;-70
2022/07/26 09:07:05;;;;;;;18.45;2.50;;;17.30;99.90;;;;;;5035191;28;20100;-69
2022/07/26 09:09:36;;;;;;;23.77;3.00;;;17.10;99.90;;;;;;5035431;28;20025;-69
2022/07/26 09:12:19;;;;;;;11.23;2.67;;;17.50;99.90;;;;;;5037241;28;20105;-69
2022/07/26 09:14:46;;;;;;;20.40;2.85;;;18.00;99.90;;;;;;5036745;28;20100;-69
2022/07/26 09:17:12;;;;;;;16.00;2.53;;;18.40;99.90;;;;;;5036738;28;20542;-70
2022/07/26 09:19:38;;;;;;;15.32;2.72;;;18.40;99.90;;;;;;5036528;28;20083;-69
2022/07/26 09:22:09;;;;;;;12.52;2.33;;;18.00;99.90;;;;;;5036594;28;20025;-70
2022/07/26 09:24:45;;;;;;;13.10;2.72;;;18.00;99.90;;;;;;5031085;28;20022;-69
2022/07/26 09:27:16;;;;;;;22.08;3.20;;;18.10;99.90;;;;;;5036587;28;20029;-70
2022/07/26 09:29:51;;;;;;;21.50;2.35;;;18.50;99.90;;;;;;5036612;28;20564;-70
2022/07/26 09:32:22;;;;;;;12.60;2.22;;;18.80;99.90;;;;;;5036653;28;20037;-70
2022/07/26 09:35:08;;;;;;;12.65;1.52;;;18.20;99.90;;;;;;5032320;28;20025;-69
2022/07/26 09:37:42;;;;;;;12.15;2.17;;;17.80;99.90;;;;;;5015743;28;20026;-69
2022/07/26 09:40:14;;;;;;;18.77;1.98;;;18.20;99.90;;;;;;5016727;28;20029;-70
2022/07/26 09:42:57;;;;;;;15.32;2.15;;;18.50;99.90;;;;;;5016994;28;20036;-70
2022/07/26 09:45:24;;;;;;;17.98;2.10;;;18.60;99.90;;;;;;5016386;28;20036;-70
2022/07/26 09:47:50;;;;;;;16.48;2.20;;;18.70;99.90;;;;;;5016860;28;20113;-69
2022/07/26 09:50:22;;;;;;;21.48;2.83;;;19.10;99.90;;;;;;5034710;28;20112;-70
2022/07/26 09:52:59;;;;;;;13.10;2.38;;;19.40;99.90;;;;;;5035954;28;20024;-70
2022/07/26 09:55:25;;;;;;;14.23;2.45;;;19.30;99.90;;;;;;5035923;28;20025;-70
2022/07/26 09:57:51;;;;;;;15.30;2.20;;;19.00;99.90;;;;;;5035849;28;20025;-70
2022/07/26 10:00:18;;;;;;;12.02;2.75;;;18.50;99.90;;;;;;5035906;28;20125;-70
2022/07/26 10:02:43;;;;;;;9.60;1.70;;;18.10;99.90;;;;;;5034874;28;20072;-69
2022/07/26 10:05:09;;;;;;;12.55;1.92;;;18.20;99.90;;;;;;5036282;28;20096;-70
2022/07/26 10:07:36;;;;;;;12.10;1.90;;;18.60;99.90;;;;;;5035649;28;20460;-69
2022/07/26 10:10:08;;;;;;;10.95;2.42;;;18.60;99.90;;;;;;5035544;28;20057;-70
2022/07/26 10:12:34;;;;;;;8.93;2.40;;;18.50;99.90;;;;;;5035469;28;20025;-69
2022/07/26 10:15:00;;;;;;;11.30;2.38;;;18.60;99.90;;;;;;5035656;28;20041;-70
2022/07/26 10:17:25;;;;;;;11.80;2.70;;;19.00;99.90;;;;;;5034058;28;20456;-70
2022/07/26 10:19:54;;;;;;;17.88;2.35;;;19.10;99.90;;;;;;5034814;28;20045;-70
2022/07/26 10:22:31;;;;;;;16.40;2.17;;;19.10;99.90;;;;;;5035488;28;20412;-70
2022/07/26 10:25:16;;;;;;;13.07;2.40;;;19.40;99.90;;;;;;5033207;28;20489;-70
2022/07/26 10:27:50;;;;;;;21.55;3.50;;;19.60;99.90;;;;;;5015295;28;20118;-70
2022/07/26 10:30:18;;;;;;;19.70;3.35;;;19.20;99.90;;;;;;5015708;28;20044;-69
2022/07/26 10:32:50;;;;;;;20.13;4.10;;;18.60;99.90;;;;;;5015428;28;20025;-70
2022/07/26 10:35:40;;;;;;;17.25;4.13;;;18.10;99.90;;;;;;5020619;28;20100;-69
2022/07/26 10:38:20;;;;;;;25.45;2.92;;;18.60;99.90;;;;;;5035028;28;20017;-69
2022/07/26 10:41:01;;;;;;;18.13;2.83;;;18.80;99.90;;;;;;5035366;28;20053;-69
2022/07/26 10:43:28;;;;;;;19.02;3.28;;;18.10;99.90;;;;;;5019887;28;20112;-70
2022/07/26 10:46:12;;;;;;;17.55;3.00;;;18.00;99.90;;;;;;5015404;28;20433;-70
2022/07/26 10:48:54;;;;;;;15.05;2.65;;;18.40;99.90;;;;;;5015037;28;20037;-70
2022/07/26 10:51:25;;;;;;;21.48;2.78;;;19.00;99.90;;;;;;5014971;28;20022;-70
2022/07/26 10:54:06;;;;;;;12.00;2.58;;;19.10;99.90;;;;;;5028446;28;20095;-70
2022/07/26 10:56:32;;;;;;;20.77;2.40;;;18.80;99.90;;;;;;5033049;28;20462;-69
2022/07/26 10:58:57;;;;;;;12.48;2.38;;;19.10;99.90;;;;;;5033888;28;20140;-70
2022/07/26 11:01:44;;;;;;;16.05;2.85;;;19.20;99.90;;;;;;5034594;28;20051;-70
2022/07/26 11:04:20;;;;;;;10.85;2.25;;;19.30;99.90;;;;;;5034568;28;20028;-70
2022/07/26 11:06:46;;;;;;;10.60;1.90;;;19.50;99.90;;;;;;5034741;28;20096;-70
2022/07/26 11:09:12;;;;;;;8.68;1.65;;;19.50;99.90;;;;;;5033434;28;20033;-69
2022/07/26 11:11:38;;;;;;;9.43;2.17;;;18.90;99.90;;;;;;5033942;28;20076;-69
2022/07/26 11:14:05;;;;;;;9.20;2.55;;;18.70;99.90;;;;;;5015934;28;20025;-70
2022/07/26 11:16:42;;;;;;;13.77;2.20;;;18.50;99.90;;;;;;5034368;28;20029;-70
2022/07/26 11:19:24;;;;;;;7.95;2.10;;;18.20;99.90;;;;;;5033310;28;20033;-69
2022/07/26 11:21:59;;;;;;;11.60;3.00;;;18.20;99.90;;;;;;5014833;28;20470;-71
2022/07/26 11:24:25;;;;;;;14.55;2.47;;;18.60;99.90;;;;;;5004096;28;20504;-71
2022/07/26 11:26:51;;;;;;;11.48;1.90;;;19.00;99.90;;;;;;5014735;28;20029;-71
2022/07/26 11:29:33;;;;;;;16.67;3.28;;;19.30;99.90;;;;;;5013646;28;20104;-71
2022/07/26 11:31:59;;;;;;;17.98;2.60;;;19.40;99.90;;;;;;5014969;28;20037;-71
2022/07/26 11:34:26;;;;;;;10.90;2.88;;;19.50;99.90;;;;;;5025616;28;20025;-71
2022/07/26 11:36:54;;;;;;;15.10;3.70;;;19.90;99.90;;;;;;5033843;28;20035;-70
2022/07/26 11:39:30;;;;;;;12.23;2.20;;;20.10;99.90;;;;;;5014130;28;20033;-71
2022/07/26 11:42:00;;;;;;;15.35;2.25;;;19.70;99.90;;;;;;5022402;28;20496;-70
2022/07/26 11:44:26;;;;;;;23.60;4.05;;;19.20;99.90;;;;;;5033868;28;20125;-71
2022/07/26 11:46:52;;;;;;;17.27;2.67;;;18.60;99.90;;;;;;5033839;28;20037;-71
2022/07/26 11:49:21;;;;;;;16.17;2.75;;;18.20;99.90;;;;;;5033587;28;20083;-71
2022/07/26 11:52:02;;;;;;;26.23;3.53;;;18.00;99.90;;;;;;5033067;28;20083;-70
2022/07/26 11:54:30;;;;;;;12.15;2.28;;;18.60;99.90;;;;;;5034036;28;20028;-71
2022/07/26 11:57:01;;;;;;;14.05;2.10;;;19.30;99.90;;;;;;5033863;28;20116;-71
2022/07/26 11:59:29;;;;;;;12.85;2.50;;;19.90;99.90;;;;;;5023771;28;20045;-70
2022/07/26 12:01:56;;;;;;;15.13;2.75;;;19.60;99.90;;;;;;5033676;28;20057;-71
2022/07/26 12:04:31;;;;;;;13.63;2.72;;;18.80;99.90;;;;;;5033847;28;20387;-70
2022/07/26 12:06:58;;;;;;;14.85;2.47;;;18.40;99.90;;;;;;5032760;28;20048;-71
2022/07/26 12:09:51;;;;;;;15.70;2.50;;;18.40;99.90;;;;;;5032286;28;20037;-70
2022/07/26 12:12:26;;;;;;;17.75;2.72;;;18.60;99.90;;;;;;5030670;28;20029;-71
2022/07/26 12:15:01;;;;;;;16.40;3.10;;;18.70;99.90;;;;;;5033800;28;20022;-70
2022/07/26 12:17:27;;;;;;;11.07;2.83;;;19.00;99.90;;;;;;5033699;28;20022;-70
2022/07/26 12:19:53;;;;;;;8.27;2.10;;;18.90;99.90;;;;;;5031440;28;20041;-70
2022/07/26 12:22:22;;;;;;;17.50;3.05;;;18.50;99.90;;;;;;5032636;28;20033;-70
2022/07/26 12:24:51;;;;;;;15.05;3.30;;;18.50;99.90;;;;;;5033415;28;20018;-70
2022/07/26 12:27:31;;;;;;;15.65;2.90;;;18.40;99.90;;;;;;5033375;28;20025;-70
2022/07/26 12:30:02;;;;;;;15.75;3.15;;;18.10;99.90;;;;;;5033261;28;20044;-70
2022/07/26 12:32:32;;;;;;;15.23;3.20;;;18.30;99.90;;;;;;5032563;28;20108;-70
2022/07/26 12:35:00;;;;;;;16.45;3.28;;;18.20;99.90;;;;;;5033390;28;20024;-70
2022/07/26 12:37:31;;;;;;;15.82;3.00;;;18.00;99.90;;;;;;5033319;28;20036;-70
2022/07/26 12:40:02;;;;;;;15.43;2.88;;;17.70;99.90;;;;;;5033107;28;20022;-70